Time;durP1;ratioP1;P1;durP2;ratioP2;P2;SDS_P1;SDS_P2;PMS_P1;PMS_P2;Temp;Humidity;BMP_temperature;BMP_pressure;BME280_temperature;BME280_humidity;BME280_pressure;Samples;Min_cycle;Max_cycle;Signal;HPM_P1;HPM_P2
2021/04/06 00:01:57;;;;;;;3.95;0.90;;;;;;;-141.50;100.00;63355.56;5061663;28;20057;-79
2021/04/06 00:04:27;;;;;;;5.75;0.90;;;;;;;-141.50;100.00;63355.56;5056833;28;20125;-79
2021/04/06 00:06:59;;;;;;;7.75;1.30;;;;;;;-141.50;100.00;63355.56;5054287;28;20041;-78
2021/04/06 00:09:28;;;;;;;5.72;1.00;;;;;;;-141.50;100.00;63355.56;5052075;28;20058;-77
2021/04/06 00:11:59;;;;;;;6.05;1.25;;;;;;;-141.50;100.00;63355.56;5047978;28;20045;-79
2021/04/06 00:14:28;;;;;;;6.25;1.27;;;;;;;-141.50;100.00;63355.56;5043096;28;20041;-77
2021/04/06 00:16:57;;;;;;;6.47;1.20;;;;;;;-141.50;100.00;63355.56;5043159;28;20205;-77
2021/04/06 00:19:25;;;;;;;5.13;1.02;;;;;;;-141.50;100.00;63355.56;5044716;28;20264;-79
2021/04/06 00:21:55;;;;;;;11.00;1.63;;;;;;;-141.50;100.00;63355.56;5056720;28;20041;-78
2021/04/06 00:24:23;;;;;;;10.43;1.45;;;;;;;-141.50;100.00;63355.56;5051420;28;20366;-78
2021/04/06 00:26:54;;;;;;;9.70;1.10;;;;;;;-141.50;100.00;63355.56;5052107;28;20045;-78
2021/04/06 00:29:26;;;;;;;9.13;1.55;;;;;;;-141.50;100.00;63355.56;5055354;28;20448;-79
2021/04/06 00:31:56;;;;;;;12.50;1.60;;;;;;;-141.50;100.00;63355.56;5055301;28;20049;-78
2021/04/06 00:34:23;;;;;;;7.18;1.33;;;;;;;-141.50;100.00;63355.56;5056836;28;20049;-79
2021/04/06 00:36:53;;;;;;;9.57;1.63;;;;;;;-141.50;100.00;63355.56;5055782;28;20033;-79
2021/04/06 00:39:27;;;;;;;7.28;1.40;;;;;;;-141.50;100.00;63355.56;5095296;22;20516;-79
2021/04/06 00:42:05;;;;;;;8.40;1.67;;;;;;;-141.50;100.00;63355.56;5092884;28;20048;-80
2021/04/06 00:44:36;;;;;;;10.65;1.40;;;;;;;-141.50;100.00;63355.56;5091878;28;20040;-80
2021/04/06 00:47:04;;;;;;;6.88;1.20;;;;;;;-141.50;100.00;63355.56;5072916;28;20044;-79
2021/04/06 00:49:34;;;;;;;7.43;1.38;;;;;;;-141.50;100.00;63355.56;5075648;28;20065;-80
2021/04/06 00:52:06;;;;;;;5.35;0.98;;;;;;;-141.50;100.00;63355.56;5076297;28;20055;-80
2021/04/06 00:54:36;;;;;;;8.23;1.40;;;;;;;-141.50;100.00;63355.56;5056346;28;20492;-79
2021/04/06 00:57:09;;;;;;;10.25;1.40;;;;;;;-141.50;100.00;63355.56;5073725;28;20556;-79
2021/04/06 00:59:35;;;;;;;7.10;2.17;;;;;;;-141.50;100.00;63355.56;5074225;28;20044;-79
2021/04/06 01:02:08;;;;;;;8.02;1.33;;;;;;;-141.50;100.00;63355.56;5074085;28;20055;-79
2021/04/06 01:04:38;;;;;;;5.85;1.27;;;;;;;-141.50;100.00;63355.56;5075821;28;20048;-79
2021/04/06 01:07:16;;;;;;;6.13;1.13;;;;;;;-141.50;100.00;63355.56;5075539;28;20372;-79
2021/04/06 01:09:50;;;;;;;13.90;1.38;;;;;;;-141.50;100.00;63355.56;5076150;28;20044;-79
2021/04/06 01:12:20;;;;;;;8.27;1.60;;;;;;;-141.50;100.00;63355.56;5062624;28;20056;-80
2021/04/06 01:14:48;;;;;;;7.03;1.35;;;;;;;-141.50;100.00;63355.56;5061407;28;20071;-80
2021/04/06 01:17:17;;;;;;;7.70;1.10;;;;;;;-141.50;100.00;63355.56;5080105;28;20032;-80
2021/04/06 01:19:44;;;;;;;6.75;1.50;;;;;;;-141.50;100.00;63355.56;5061064;28;20147;-79
2021/04/06 01:22:13;;;;;;;7.35;1.17;;;;;;;-141.50;100.00;63355.56;5078848;28;20040;-80
2021/04/06 01:24:40;;;;;;;5.53;1.10;;;;;;;-141.50;100.00;63355.56;5095819;28;20136;-80
2021/04/06 01:27:08;;;;;;;13.07;1.58;;;;;;;-141.50;100.00;63355.56;5061259;28;20036;-80
2021/04/06 01:29:36;;;;;;;2.03;1.05;;;;;;;-141.50;100.00;63355.56;5078218;28;20513;-80
2021/04/06 01:32:03;;;;;;;5.60;1.02;;;;;;;-141.50;100.00;63355.56;5077869;28;20040;-80
2021/04/06 01:34:30;;;;;;;6.10;1.40;;;;;;;-141.50;100.00;63355.56;5095387;28;20458;-80
2021/04/06 01:36:57;;;;;;;8.60;1.70;;;;;;;-141.50;100.00;63355.56;5077619;28;20052;-80
2021/04/06 01:39:27;;;;;;;8.50;1.35;;;;;;;-141.50;100.00;63355.56;5075835;28;20040;-79
2021/04/06 01:42:00;;;;;;;4.78;1.20;;;;;;;-141.50;100.00;63355.56;5077738;28;20040;-79
2021/04/06 01:44:28;;;;;;;7.68;1.33;;;;;;;-141.50;100.00;63355.56;5077799;28;20084;-79
2021/04/06 01:46:54;;;;;;;7.63;1.20;;;;;;;-141.50;100.00;63355.56;5077386;28;20057;-78
2021/04/06 01:49:22;;;;;;;5.55;1.23;;;;;;;-141.50;100.00;63355.56;5078276;28;20496;-79
2021/04/06 01:51:57;;;;;;;8.55;1.17;;;;;;;-141.50;100.00;63355.56;5062064;28;20113;-79
2021/04/06 01:54:24;;;;;;;7.22;1.00;;;;;;;-141.50;100.00;63355.56;5076603;28;20056;-79
2021/04/06 01:59:26;;;;;;;10.50;1.27;;;;;;;-141.50;100.00;63355.56;5098070;28;20416;-80
2021/04/06 02:01:55;;;;;;;6.28;1.40;;;;;;;-141.50;100.00;63355.56;5061160;28;20456;-80
2021/04/06 02:04:23;;;;;;;6.15;1.10;;;;;;;-141.50;100.00;63355.56;5060802;28;20504;-81
2021/04/06 02:06:54;;;;;;;4.82;1.30;;;;;;;-141.50;100.00;63355.56;5096309;28;20052;-80
2021/04/06 02:09:21;;;;;;;11.02;1.55;;;;;;;-141.50;100.00;63355.56;5076298;28;20048;-80
2021/04/06 02:11:47;;;;;;;7.90;1.48;;;;;;;-141.50;100.00;63355.56;5061122;28;20059;-80
2021/04/06 02:14:21;;;;;;;8.43;1.30;;;;;;;-141.50;100.00;63355.56;5076778;28;20043;-80
2021/04/06 02:16:51;;;;;;;6.20;1.17;;;;;;;-141.50;100.00;63355.56;5093966;28;20035;-80
2021/04/06 02:19:26;;;;;;;8.48;2.10;;;;;;;-141.50;100.00;63355.56;5076580;28;20164;-80
2021/04/06 02:21:55;;;;;;;5.07;1.00;;;;;;;-141.50;100.00;63355.56;5078871;28;20048;-79
2021/04/06 02:24:34;;;;;;;4.47;1.33;;;;;;;-141.50;100.00;63355.56;5056938;28;20060;-79
2021/04/06 02:27:30;;;;;;;5.60;1.20;;;;;;;-141.50;100.00;63355.56;5092676;28;20055;-79
2021/04/06 02:30:01;;;;;;;9.68;1.70;;;;;;;-141.50;100.00;63355.56;5054983;28;20121;-80
2021/04/06 02:32:30;;;;;;;6.30;1.50;;;;;;;-141.50;100.00;63355.56;5054476;28;20093;-80
2021/04/06 02:35:04;;;;;;;7.82;1.50;;;;;;;-141.50;100.00;63355.56;5077190;28;20043;-80
2021/04/06 02:37:36;;;;;;;9.02;1.70;;;;;;;-141.50;100.00;63355.56;5088299;28;20064;-79
2021/04/06 02:40:12;;;;;;;3.60;1.73;;;;;;;-141.50;100.00;63355.56;5074404;28;20040;-79
2021/04/06 02:42:45;;;;;;;;;;;;;;;-141.50;100.00;63355.56;5095579;28;20044;-79
2021/04/06 02:45:21;;;;;;;5.60;1.77;;;;;;;-141.50;100.00;63355.56;5057192;28;20339;-78
2021/04/06 02:48:02;;;;;;;8.63;2.30;;;;;;;-141.50;100.00;63355.56;5093039;28;20219;-79
2021/04/06 02:50:29;;;;;;;10.48;2.38;;;;;;;-141.50;100.00;63355.56;5093305;28;20052;-78
2021/04/06 02:52:55;;;;;;;6.88;2.40;;;;;;;-141.50;100.00;63355.56;5074399;28;20054;-78
2021/04/06 02:55:23;;;;;;;10.20;2.40;;;;;;;-141.50;100.00;63355.56;5058014;28;20503;-79
2021/04/06 02:57:52;;;;;;;9.63;2.90;;;;;;;-141.50;100.00;63355.56;5094838;28;20064;-80
2021/04/06 03:00:27;;;;;;;6.90;2.35;;;;;;;-141.50;100.00;63355.56;5059999;28;20054;-78
2021/04/06 03:02:54;;;;;;;;;;;;;;;-141.50;100.00;63355.56;5059562;28;20031;-78
2021/04/06 03:05:36;;;;;;;8.07;2.28;;;;;;;-141.50;100.00;63355.56;5073790;28;19969;-78
2021/04/06 03:08:03;;;;;;;11.10;2.70;;;;;;;-141.50;100.00;63355.56;5057347;28;20036;-79
2021/04/06 03:10:30;;;;;;;11.45;2.72;;;;;;;-141.50;100.00;63355.56;5073580;28;20048;-78
2021/04/06 03:12:57;;;;;;;7.88;3.00;;;;;;;-141.50;100.00;63355.56;5058620;28;20075;-78
2021/04/06 03:15:25;;;;;;;8.05;2.92;;;;;;;-141.50;100.00;63355.56;5094245;28;20451;-79
2021/04/06 03:17:54;;;;;;;10.40;3.05;;;;;;;-141.50;100.00;63355.56;5074106;28;20056;-78
2021/04/06 03:20:23;;;;;;;8.02;2.90;;;;;;;-141.50;100.00;63355.56;5093551;28;20103;-79
2021/04/06 03:22:51;;;;;;;13.63;2.88;;;;;;;-141.50;100.00;63355.56;5094574;28;20048;-79
2021/04/06 03:25:18;;;;;;;9.77;3.40;;;;;;;-141.50;100.00;63355.56;5075094;28;20051;-80
2021/04/06 03:27:46;;;;;;;8.50;2.55;;;;;;;-141.50;100.00;63355.56;5059560;28;20059;-79
2021/04/06 03:30:14;;;;;;;8.60;3.13;;;;;;;-141.50;100.00;63355.56;5077135;28;20075;-80
2021/04/06 03:32:41;;;;;;;8.68;2.88;;;;;;;-141.50;100.00;63355.56;5081104;28;20093;-82
2021/04/06 03:35:08;;;;;;;9.75;3.40;;;;;;;-141.50;100.00;63355.56;5083618;28;20120;-80
2021/04/06 03:37:36;;;;;;;11.60;3.72;;;;;;;-141.50;100.00;63355.56;5084188;28;20508;-80
2021/04/06 03:40:04;;;;;;;13.32;3.65;;;;;;;-141.50;100.00;63355.56;5098803;28;20548;-80
2021/04/06 03:42:30;;;;;;;8.40;3.00;;;;;;;-141.50;100.00;63355.56;5083956;28;20461;-79
2021/04/06 03:45:10;;;;;;;13.90;3.72;;;;;;;-141.50;100.00;63355.56;5067587;28;20533;-79
2021/04/06 03:47:58;;;;;;;9.35;3.00;;;;;;;-141.50;100.00;63355.56;5098699;28;20452;-79
2021/04/06 03:50:52;;;;;;;18.27;3.53;;;;;;;-141.50;100.00;63355.56;5094752;28;20050;-79
2021/04/06 03:53:22;;;;;;;9.32;3.72;;;;;;;-141.50;100.00;63355.56;5090148;28;20480;-79
2021/04/06 03:56:07;;;;;;;11.82;4.03;;;;;;;-141.50;100.00;63355.56;5079407;28;20048;-79
2021/04/06 03:58:40;;;;;;;10.80;3.75;;;;;;;-141.50;100.00;63355.56;5060446;28;20043;-80
2021/04/06 04:01:07;;;;;;;10.32;3.60;;;;;;;-141.50;100.00;63355.56;5075339;28;20047;-80
2021/04/06 04:03:34;;;;;;;9.60;3.72;;;;;;;-141.50;100.00;63355.56;5078237;28;20062;-81
2021/04/06 04:06:02;;;;;;;8.55;3.30;;;;;;;-141.50;100.00;63355.56;5096847;28;20079;-82
2021/04/06 04:08:29;;;;;;;11.68;3.75;;;;;;;-141.50;100.00;63355.56;5060484;28;20056;-81
2021/04/06 04:10:55;;;;;;;16.00;3.95;;;;;;;-141.50;100.00;63355.56;5062756;28;20044;-81
2021/04/06 04:13:21;;;;;;;12.25;3.85;;;;;;;-141.50;100.00;63355.56;5076028;28;20055;-81
2021/04/06 04:15:47;;;;;;;10.43;4.15;;;;;;;-141.50;100.00;63355.56;5091144;28;20051;-84
2021/04/06 04:18:15;;;;;;;11.88;4.60;;;;;;;-141.50;100.00;63355.56;5074462;28;20073;-80
2021/04/06 04:20:42;;;;;;;13.43;4.43;;;;;;;-141.50;100.00;63355.56;5075038;28;20155;-81
2021/04/06 04:23:11;;;;;;;13.23;5.03;;;;;;;-141.50;100.00;63355.56;5092975;28;20463;-81
2021/04/06 04:25:37;;;;;;;14.35;5.15;;;;;;;-141.50;100.00;63355.56;5073733;28;20047;-81
2021/04/06 04:28:04;;;;;;;16.98;5.75;;;;;;;-141.50;100.00;63355.56;5075449;28;20036;-80
2021/04/06 04:30:41;;;;;;;18.05;5.43;;;;;;;-141.50;100.00;63355.56;5071570;28;20055;-81
2021/04/06 04:33:09;;;;;;;15.93;5.63;;;;;;;-141.50;100.00;63355.56;5065477;28;20048;-81
2021/04/06 04:35:36;;;;;;;19.15;6.43;;;;;;;-141.50;100.00;63355.56;5035314;28;20048;-80
2021/04/06 04:38:04;;;;;;;14.90;6.20;;;;;;;-141.50;100.00;63355.56;5061675;28;20507;-80
2021/04/06 04:40:31;;;;;;;17.55;6.50;;;;;;;-141.50;100.00;63355.56;5051093;28;20048;-81
2021/04/06 04:43:01;;;;;;;18.45;5.90;;;;;;;-141.50;100.00;63355.56;5090868;28;20048;-81
2021/04/06 04:45:29;;;;;;;16.15;6.07;;;;;;;-141.50;100.00;63355.56;5088917;28;20032;-82
2021/04/06 04:47:56;;;;;;;15.98;6.10;;;;;;;-141.50;100.00;63355.56;5046111;28;20044;-82
2021/04/06 04:50:23;;;;;;;10.80;6.03;;;;;;;-141.50;100.00;63355.56;5052732;28;20063;-81
2021/04/06 04:52:50;;;;;;;15.23;6.25;;;;;;;-141.50;100.00;63355.56;5075836;28;20056;-80
2021/04/06 04:55:18;;;;;;;13.15;6.43;;;;;;;-141.50;100.00;63355.56;5073129;28;20410;-80
2021/04/06 04:57:45;;;;;;;13.98;5.93;;;;;;;-141.50;100.00;63355.56;5096809;28;20036;-83
2021/04/06 05:00:13;;;;;;;15.93;5.78;;;;;;;-141.50;100.00;63355.56;5098587;28;20059;-81
2021/04/06 05:02:39;;;;;;;15.43;5.88;;;;;;;-141.50;100.00;63355.56;5057604;28;20044;-82
2021/04/06 05:05:08;;;;;;;13.75;5.78;;;;;;;-141.50;100.00;63355.56;5087781;28;20040;-80
2021/04/06 05:07:39;;;;;;;10.80;5.40;;;;;;;-141.50;100.00;63355.56;5092356;28;20036;-80
2021/04/06 05:10:07;;;;;;;11.35;5.82;;;;;;;-141.50;100.00;63355.56;5092694;28;20403;-82
2021/04/06 05:12:33;;;;;;;10.48;5.65;;;;;;;-141.50;100.00;63355.56;5073701;28;20056;-81
2021/04/06 05:15:00;;;;;;;10.02;4.95;;;;;;;-141.50;100.00;63355.56;5077389;28;20055;-80
2021/04/06 05:17:26;;;;;;;12.50;5.28;;;;;;;-141.50;100.00;63355.56;5058308;28;20040;-82
2021/04/06 05:19:52;;;;;;;13.50;5.70;;;;;;;-141.50;100.00;63355.56;5075439;28;20062;-81
2021/04/06 05:22:18;;;;;;;11.18;5.05;;;;;;;-141.50;100.00;63355.56;5056689;28;20059;-83
2021/04/06 05:24:44;;;;;;;12.88;5.63;;;;;;;-141.50;100.00;63355.56;5082600;28;20044;-81
2021/04/06 05:27:11;;;;;;;11.57;4.80;;;;;;;-141.50;100.00;63355.56;5090836;28;20058;-80
2021/04/06 05:29:37;;;;;;;14.65;6.13;;;;;;;-141.50;100.00;63355.56;5091122;28;20044;-82
2021/04/06 05:32:03;;;;;;;13.07;5.63;;;;;;;-141.50;100.00;63355.56;5072786;28;20290;-82
2021/04/06 05:34:29;;;;;;;13.00;5.35;;;;;;;-141.50;100.00;63355.56;5078501;28;20051;-81
2021/04/06 05:36:56;;;;;;;11.82;4.97;;;;;;;-141.50;100.00;63355.56;5058205;28;20059;-82
2021/04/06 05:39:22;;;;;;;10.95;6.00;;;;;;;-141.50;100.00;63355.56;5073792;28;20047;-81
2021/04/06 05:41:48;;;;;;;13.25;5.85;;;;;;;-141.50;100.00;63355.56;5074497;28;20151;-81
2021/04/06 05:44:17;;;;;;;12.80;6.00;;;;;;;-141.50;100.00;63355.56;5074525;28;20043;-82
2021/04/06 05:46:49;;;;;;;13.35;5.28;;;;;;;-141.50;100.00;63355.56;5074234;28;20075;-80
2021/04/06 05:49:23;;;;;;;12.82;5.70;;;;;;;-141.50;100.00;63355.56;5074021;28;20048;-79
2021/04/06 05:51:49;;;;;;;15.45;6.03;;;;;;;-141.50;100.00;63355.56;5072720;28;20104;-82
2021/04/06 05:54:17;;;;;;;13.85;5.60;;;;;;;-141.50;100.00;63355.56;5056444;28;20562;-81
2021/04/06 05:56:43;;;;;;;13.75;6.32;;;;;;;-141.50;100.00;63355.56;5058436;28;20040;-81
2021/04/06 05:59:10;;;;;;;13.55;6.65;;;;;;;-141.50;100.00;63355.56;5075546;28;20044;-81
2021/04/06 06:01:42;;;;;;;9.80;6.18;;;;;;;-141.50;100.00;63355.56;5073335;28;20056;-81
2021/04/06 06:04:10;;;;;;;15.75;6.65;;;;;;;-141.50;100.00;63355.56;5070662;28;20048;-82
2021/04/06 06:06:36;;;;;;;14.45;6.53;;;;;;;-141.50;100.00;63355.56;5074938;28;20048;-80
2021/04/06 06:09:04;;;;;;;18.08;9.02;;;;;;;-141.50;100.00;63355.56;5071938;28;20495;-81
2021/04/06 06:11:53;;;;;;;15.02;7.47;;;;;;;-141.50;100.00;63355.56;5073636;28;20040;-81
2021/04/06 06:14:35;;;;;;;12.15;6.07;;;;;;;-141.50;100.00;63355.56;5085003;28;20056;-81
2021/04/06 06:17:20;;;;;;;16.90;6.72;;;;;;;-141.50;100.00;63355.56;5081485;28;20510;-81
2021/04/06 06:19:57;;;;;;;10.73;5.72;;;;;;;-141.50;100.00;63355.56;5074458;28;20048;-81
2021/04/06 06:22:28;;;;;;;11.18;5.78;;;;;;;-141.50;100.00;63355.56;5091982;28;20040;-80
2021/04/06 06:25:20;;;;;;;12.00;5.88;;;;;;;-141.50;100.00;63355.56;5105073;22;20473;-78
2021/04/06 06:27:48;;;;;;;10.48;5.43;;;;;;;-141.50;100.00;63355.56;5093845;28;20056;-78
2021/04/06 06:30:32;;;;;;;9.70;5.40;;;;;;;-141.50;100.00;63355.56;5096423;28;20048;-77
2021/04/06 06:33:11;;;;;;;9.52;4.75;;;;;;;-141.50;100.00;63355.56;5093612;28;20047;-77
2021/04/06 06:35:38;;;;;;;9.93;5.20;;;;;;;-141.50;100.00;63355.56;5102998;28;20052;-77
2021/04/06 06:38:30;;;;;;;8.98;5.28;;;;;;;-141.50;100.00;63355.56;5129364;22;20448;-79
2021/04/06 06:41:04;;;;;;;12.50;5.47;;;;;;;-141.50;100.00;63355.56;5066935;28;20048;-77
2021/04/06 06:43:30;;;;;;;12.32;6.38;;;;;;;-141.50;100.00;63355.56;5077813;28;20078;-78
2021/04/06 06:45:56;;;;;;;11.60;5.72;;;;;;;-141.50;100.00;63355.56;5090288;28;20226;-76
2021/04/06 06:48:27;;;;;;;12.10;6.32;;;;;;;-141.50;100.00;63355.56;5071903;28;20048;-79
2021/04/06 06:50:53;;;;;;;12.93;6.78;;;;;;;-141.50;100.00;63355.56;5067872;28;20075;-78
2021/04/06 06:53:40;;;;;;;13.57;7.18;;;;;;;-141.50;100.00;63355.56;5062393;28;20106;-78
2021/04/06 06:56:09;;;;;;;12.65;6.93;;;;;;;-141.50;100.00;63355.56;5070469;28;20051;-79
2021/04/06 06:58:41;;;;;;;12.63;6.82;;;;;;;-141.50;100.00;63355.56;5072506;28;20095;-78
2021/04/06 07:01:29;;;;;;;10.38;6.63;;;;;;;-141.50;100.00;63355.56;5072005;28;20253;-78
2021/04/06 07:04:08;;;;;;;11.10;6.30;;;;;;;-141.50;100.00;63355.56;5072303;28;20064;-77
2021/04/06 07:06:40;;;;;;;11.30;6.38;;;;;;;-141.50;100.00;63355.56;5074708;28;20055;-78
2021/04/06 07:09:22;;;;;;;11.43;6.45;;;;;;;-141.50;100.00;63355.56;5070730;28;20044;-78
2021/04/06 07:11:54;;;;;;;10.00;5.70;;;;;;;-141.50;100.00;63355.56;5058212;28;20052;-78
2021/04/06 07:14:24;;;;;;;10.32;5.88;;;;;;;-141.50;100.00;63355.56;5058031;28;20048;-78
2021/04/06 07:16:57;;;;;;;8.75;5.68;;;;;;;-141.50;100.00;63355.56;5089128;28;20131;-76
2021/04/06 07:19:23;;;;;;;11.25;6.30;;;;;;;-141.50;100.00;63355.56;5075577;28;20062;-76
2021/04/06 07:21:57;;;;;;;10.50;6.47;;;;;;;-141.50;100.00;63355.56;5095684;28;20467;-78
2021/04/06 07:24:40;;;;;;;10.13;5.47;;;;;;;-141.50;100.00;63355.56;5074794;28;20139;-78
2021/04/06 07:27:13;;;;;;;12.18;7.65;;;;;;;-141.50;100.00;63355.56;5088562;28;20044;-76
2021/04/06 07:29:41;;;;;;;12.73;7.32;;;;;;;-141.50;100.00;63355.56;5090694;28;20407;-78
2021/04/06 07:32:14;;;;;;;12.43;7.45;;;;;;;-141.50;100.00;63355.56;5053896;28;20056;-77
2021/04/06 07:34:44;;;;;;;12.55;7.53;;;;;;;-141.50;100.00;63355.56;5035496;28;20072;-77
2021/04/06 07:37:11;;;;;;;14.50;8.63;;;;;;;-141.50;100.00;63355.56;5050435;28;20075;-76
2021/04/06 07:39:40;;;;;;;20.70;11.68;;;;;;;-141.50;100.00;63355.56;5050557;28;20041;-77
2021/04/06 07:42:08;;;;;;;23.05;11.85;;;;;;;-141.50;100.00;63355.56;5034292;28;20342;-79
2021/04/06 07:44:37;;;;;;;21.85;12.02;;;;;;;-141.50;100.00;63355.56;5093206;28;20052;-79
2021/04/06 07:47:04;;;;;;;20.20;10.90;;;;;;;-141.50;100.00;63355.56;5069733;28;20139;-80
2021/04/06 07:49:30;;;;;;;20.95;11.75;;;;;;;-141.50;100.00;63355.56;5072057;28;20087;-77
2021/04/06 07:51:59;;;;;;;20.77;11.52;;;;;;;-141.50;100.00;63355.56;5071496;28;20059;-79
2021/04/06 07:54:50;;;;;;;19.85;11.35;;;;;;;-141.50;100.00;63355.56;5073531;28;20112;-78
2021/04/06 07:57:17;;;;;;;25.67;12.18;;;;;;;-141.50;100.00;63355.56;5071629;28;20048;-79
2021/04/06 07:59:50;;;;;;;19.70;11.18;;;;;;;-141.50;100.00;63355.56;5070642;28;20048;-79
2021/04/06 08:02:23;;;;;;;22.55;11.07;;;;;;;-141.50;100.00;63355.56;5071083;28;20035;-77
2021/04/06 08:04:55;;;;;;;23.00;12.55;;;;;;;-141.50;100.00;63355.56;5069842;28;20459;-77
2021/04/06 08:07:23;;;;;;;23.75;13.45;;;;;;;-141.50;100.00;63355.56;5052617;28;20055;-77
2021/04/06 08:09:56;;;;;;;23.27;12.85;;;;;;;-141.50;100.00;63355.56;5070978;28;20044;-78
2021/04/06 08:12:33;;;;;;;24.60;12.93;;;;;;;-141.50;100.00;63355.56;5072515;28;20043;-78
2021/04/06 08:15:16;;;;;;;39.97;16.67;;;;;;;-141.50;100.00;63355.56;5052590;28;20048;-78
2021/04/06 08:17:45;;;;;;;23.63;13.18;;;;;;;-141.50;100.00;63355.56;5050546;28;20045;-77
2021/04/06 08:20:22;;;;;;;20.48;11.85;;;;;;;-141.50;100.00;63355.56;5038075;28;20155;-77
2021/04/06 08:22:58;;;;;;;18.17;9.88;;;;;;;-141.50;100.00;63355.56;5056210;28;20140;-77
2021/04/06 08:25:30;;;;;;;;;;;;;;;-141.50;100.00;63355.56;5041355;28;20048;-78
2021/04/06 08:28:01;;;;;;;15.85;8.25;;;;;;;-141.50;100.00;63355.56;5072875;28;19927;-76
2021/04/06 08:30:30;;;;;;;17.52;8.10;;;;;;;-141.50;100.00;63355.56;5072174;28;20071;-77
2021/04/06 08:32:56;;;;;;;13.27;7.70;;;;;;;-141.50;100.00;63355.56;5092375;28;20249;-78
2021/04/06 08:35:49;;;;;;;12.05;7.03;;;;;;;-141.50;100.00;63355.56;5072351;28;20237;-77
2021/04/06 08:38:24;;;;;;;10.27;6.45;;;;;;;-141.50;100.00;63355.56;5071787;28;20151;-77
2021/04/06 08:40:57;;;;;;;9.25;5.40;;;;;;;-141.50;100.00;63355.56;5056308;28;20052;-79
2021/04/06 08:43:43;;;;;;;9.15;4.47;;;;;;;-141.50;100.00;63355.56;5055458;28;20048;-79
2021/04/06 08:46:51;;;;;;;8.40;4.30;;;;;;;-141.50;100.00;63355.56;5075410;28;20418;-76
2021/04/06 08:49:25;;;;;;;10.98;3.92;;;;;;;-141.50;100.00;63355.56;5074968;28;20058;-77
2021/04/06 08:51:57;;;;;;;6.55;2.92;;;;;;;-141.50;100.00;63355.56;5058011;28;20055;-78
2021/04/06 08:54:31;;;;;;;7.75;3.30;;;;;;;-141.50;100.00;63355.56;5075848;28;20040;-76
2021/04/06 08:57:03;;;;;;;10.73;3.05;;;;;;;-141.50;100.00;63355.56;5037678;28;20412;-79
2021/04/06 08:59:35;;;;;;;10.38;2.90;;;;;;;-141.50;100.00;63355.56;5052726;28;20063;-77
2021/04/06 09:02:10;;;;;;;7.88;2.42;;;;;;;-141.50;100.00;63355.56;5070265;28;20457;-77
2021/04/06 09:04:39;;;;;;;7.82;2.83;;;;;;;-141.50;100.00;63355.56;5037888;28;20135;-78
2021/04/06 09:07:23;;;;;;;9.05;2.67;;;;;;;-141.50;100.00;63355.56;5052078;28;20059;-79
2021/04/06 09:10:03;;;;;;;7.20;2.60;;;;;;;-141.50;100.00;63355.56;5053007;28;20063;-79
2021/04/06 09:12:31;;;;;;;10.07;2.60;;;;;;;-141.50;100.00;63355.56;5070570;28;20408;-78
2021/04/06 09:14:58;;;;;;;11.85;2.67;;;;;;;-141.50;100.00;63355.56;5072195;28;20113;-79
2021/04/06 09:17:31;;;;;;;7.28;2.53;;;;;;;-141.50;100.00;63355.56;5057081;28;20056;-79
2021/04/06 09:19:59;;;;;;;7.88;2.40;;;;;;;-141.50;100.00;63355.56;5073316;28;20060;-79
2021/04/06 09:22:25;;;;;;;7.30;2.08;;;;;;;-141.50;100.00;63355.56;5090361;28;20118;-77
2021/04/06 09:24:51;;;;;;;6.30;2.20;;;;;;;-141.50;100.00;63355.56;5067744;28;20463;-78
2021/04/06 09:27:18;;;;;;;7.28;2.10;;;;;;;-141.50;100.00;63355.56;5088337;28;20100;-78
2021/04/06 09:29:47;;;;;;;8.65;2.30;;;;;;;-141.50;100.00;63355.56;5055868;28;20052;-80
2021/04/06 09:32:19;;;;;;;7.22;2.50;;;;;;;-141.50;100.00;63355.56;5071031;28;20044;-79
2021/04/06 09:34:52;;;;;;;7.47;2.20;;;;;;;-141.50;100.00;63355.56;5064717;28;20048;-80
2021/04/06 09:37:27;;;;;;;9.68;2.40;;;;;;;-141.50;100.00;63355.56;5073605;28;20055;-80
2021/04/06 09:39:58;;;;;;;14.25;2.45;;;;;;;-141.50;100.00;63355.56;5091114;28;20105;-78
2021/04/06 09:42:26;;;;;;;7.68;2.15;;;;;;;-141.50;100.00;63355.56;5090223;28;20609;-79
2021/04/06 09:44:53;;;;;;;6.93;2.20;;;;;;;-141.50;100.00;63355.56;5074454;28;20158;-77
2021/04/06 09:47:21;;;;;;;6.97;2.28;;;;;;;-141.50;100.00;63355.56;5079371;28;20040;-77
2021/04/06 09:49:51;;;;;;;7.00;2.15;;;;;;;-141.50;100.00;63355.56;5095926;28;21139;-78
2021/04/06 09:52:25;;;;;;;13.48;2.20;;;;;;;-141.50;100.00;63355.56;5088658;28;20070;-78
2021/04/06 09:54:57;;;;;;;6.20;2.08;;;;;;;-141.50;100.00;63355.56;5073893;28;20052;-81
2021/04/06 09:57:31;;;;;;;10.75;2.35;;;;;;;-141.50;100.00;63355.56;5059700;28;20062;-79
2021/04/06 09:59:58;;;;;;;8.70;2.67;;;;;;;-141.50;100.00;63355.56;5092612;28;20058;-77
2021/04/06 10:02:27;;;;;;;4.13;2.05;;;;;;;-141.50;100.00;63355.56;5077831;28;20506;-77
2021/04/06 10:04:54;;;;;;;8.45;2.20;;;;;;;-141.50;100.00;63355.56;5062847;28;20094;-76
2021/04/06 10:07:34;;;;;;;7.38;2.45;;;;;;;-141.50;100.00;63355.56;5096236;28;20044;-79
2021/04/06 10:10:05;;;;;;;8.23;2.20;;;;;;;-141.50;100.00;63355.56;5062212;28;20163;-78
2021/04/06 10:12:32;;;;;;;9.38;2.25;;;;;;;-141.50;100.00;63355.56;5074407;28;20142;-77
2021/04/06 10:15:00;;;;;;;10.70;1.80;;;;;;;-141.50;100.00;63355.56;5096010;28;20038;-79
2021/04/06 10:17:38;;;;;;;7.25;1.80;;;;;;;-141.50;100.00;63355.56;5079551;28;20113;-78
2021/04/06 10:20:16;;;;;;;6.55;2.03;;;;;;;-141.50;100.00;63355.56;5099274;28;20052;-78
2021/04/06 10:22:51;;;;;;;8.18;2.22;;;;;;;-141.50;100.00;63355.56;5078271;28;20070;-78
2021/04/06 10:25:20;;;;;;;7.47;2.08;;;;;;;-141.50;100.00;63355.56;5071269;28;20048;-78
2021/04/06 10:27:50;;;;;;;8.10;2.35;;;;;;;-141.50;100.00;63355.56;5072513;28;20040;-79
2021/04/06 10:30:40;;;;;;;7.05;1.90;;;;;;;-141.50;100.00;63355.56;5092793;28;20449;-78
2021/04/06 10:33:11;;;;;;;8.10;1.80;;;;;;;-141.50;100.00;63355.56;5093086;28;20123;-77
2021/04/06 10:35:43;;;;;;;8.68;2.08;;;;;;;-141.50;100.00;63355.56;5076368;28;20127;-79
2021/04/06 10:38:24;;;;;;;7.25;1.90;;;;;;;-141.50;100.00;63355.56;5055628;28;20044;-78
2021/04/06 10:41:02;;;;;;;6.80;1.80;;;;;;;-141.50;100.00;63355.56;5072034;28;20051;-79
2021/04/06 10:44:01;;;;;;;11.70;2.25;;;;;;;-141.50;100.00;63355.56;5055255;28;20048;-78
2021/04/06 10:46:30;;;;;;;6.37;1.80;;;;;;;-141.50;100.00;63355.56;5039461;28;20048;-78
2021/04/06 10:49:03;;;;;;;10.52;2.33;;;;;;;-141.50;100.00;63355.56;5037370;28;20071;-78
2021/04/06 10:51:31;;;;;;;8.98;2.05;;;;;;;-141.50;100.00;63355.56;5062958;28;20078;-77
2021/04/06 10:54:01;;;;;;;6.90;1.88;;;;;;;-141.50;100.00;63355.56;5059953;28;20091;-77
2021/04/06 10:56:30;;;;;;;9.07;2.28;;;;;;;-141.50;100.00;63355.56;5075825;28;20131;-78
2021/04/06 10:59:06;;;;;;;9.00;2.45;;;;;;;-141.50;100.00;63355.56;5073545;28;20147;-78
2021/04/06 11:01:42;;;;;;;;;;;;;;;-141.50;100.00;63355.56;5095796;28;20503;-77
2021/04/06 11:04:12;;;;;;;8.43;2.03;;;;;;;-141.50;100.00;63355.56;5075541;28;19920;-78
2021/04/06 11:06:43;;;;;;;6.70;2.00;;;;;;;-141.50;100.00;63355.56;5091895;28;20046;-79
2021/04/06 11:09:17;;;;;;;9.50;2.20;;;;;;;-141.50;100.00;63355.56;5073415;28;20580;-79
2021/04/06 11:11:46;;;;;;;6.05;1.70;;;;;;;-141.50;100.00;63355.56;5074050;28;20044;-77
2021/04/06 11:14:16;;;;;;;9.95;1.90;;;;;;;-141.50;100.00;63355.56;5066847;28;20131;-78
2021/04/06 11:16:43;;;;;;;8.55;2.10;;;;;;;-141.50;100.00;63355.56;5073511;28;20689;-78
2021/04/06 11:19:16;;;;;;;5.70;1.83;;;;;;;-141.50;100.00;63355.56;5069070;28;20098;-78
2021/04/06 11:21:46;;;;;;;8.52;1.73;;;;;;;-141.50;100.00;63355.56;5072246;28;20221;-78
2021/04/06 11:24:16;;;;;;;7.60;1.77;;;;;;;-141.50;100.00;63355.56;5090298;28;20071;-76
2021/04/06 11:26:45;;;;;;;8.40;1.60;;;;;;;-141.50;100.00;63355.56;5078251;28;20064;-77
2021/04/06 11:29:13;;;;;;;10.32;1.65;;;;;;;-141.50;100.00;63355.56;5055328;28;20053;-77